EGTK/OXF METAR and TAF weather

Enter ICAO airport designator
Station Type Date Time Source
EGTK METAR 2018/07/21 21:20 UTC NOAA

EGTK 212120Z 25003KT CAVOK 20/14 Q1015


Station Type Date Time Source
EGTK Decoded METAR 2018/07/21 21:20 UTC NOAA

Station name not available
Jul 21, 2018 - 05:20 PM EDT / 2018.07.21 2120 UTC
Wind: from the WSW (250 degrees) at 3 MPH (3 KT):0
Visibility: greater than 7 mile(s):0
Temperature: 68 F (20 C)
Dew Point: 57 F (14 C)
Relative Humidity: 68%
Pressure (altimeter): 29.97 in. Hg (1015 hPa)
ob: EGTK 212120Z 25003KT CAVOK 20/14 Q1015
cycle: 21

Station Type Date Time Source
EGTK TAF UTC NOAA

Error!


Example: see airport list